createdAt,value
2023-01-29T00:02:22.020Z,102198.03
2023-01-29T00:04:48.430Z,102196.50
2023-01-29T00:07:14.748Z,102200.91
2023-01-29T00:09:41.127Z,102205.00
2023-01-29T00:12:10.422Z,102199.25
2023-01-29T00:14:36.756Z,102205.00
2023-01-29T00:17:03.159Z,102206.53
2023-01-29T00:19:29.549Z,102208.75
2023-01-29T00:21:56.105Z,102200.91
2023-01-29T00:24:22.582Z,102198.78
2023-01-29T00:26:50.165Z,102196.66
2023-01-29T00:29:17.815Z,102187.28
2023-01-29T00:31:44.484Z,102180.78
2023-01-29T00:34:11.015Z,102182.88
2023-01-29T00:36:37.334Z,102177.91
2023-01-29T00:39:10.461Z,102169.88
2023-01-29T00:41:55.862Z,102178.50
2023-01-29T00:44:41.141Z,102176.25
2023-01-29T00:47:26.351Z,102169.75
2023-01-29T00:49:52.813Z,102163.25
2023-01-29T00:52:25.366Z,102170.50
2023-01-29T00:54:58.508Z,102166.25
2023-01-29T00:57:25.128Z,102172.16
2023-01-29T00:59:52.967Z,102167.75
2023-01-29T01:02:38.441Z,102172.16
2023-01-29T01:05:06.154Z,102175.78
2023-01-29T01:07:32.555Z,102174.25
2023-01-29T01:10:17.961Z,102175.03
2023-01-29T01:12:45.095Z,102173.50
2023-01-29T01:15:11.421Z,102176.38
2023-01-29T01:17:37.980Z,102173.38
2023-01-29T01:20:04.389Z,102176.25
2023-01-29T01:22:31.855Z,102169.13
2023-01-29T01:24:58.216Z,102166.25
2023-01-29T01:27:25.565Z,102175.78
2023-01-29T01:29:52.097Z,102159.28
2023-01-29T01:32:18.453Z,102159.28
2023-01-29T01:34:47.813Z,102157.88
2023-01-29T01:37:14.162Z,102164.41
2023-01-29T01:39:40.508Z,102171.53
2023-01-29T01:42:10.983Z,102173.66
2023-01-29T01:44:53.757Z,102181.53
2023-01-29T01:47:24.925Z,102175.03
2023-01-29T01:49:51.330Z,102185.00
2023-01-29T01:52:17.682Z,102180.00
2023-01-29T01:54:44.341Z,102167.63
2023-01-29T01:57:15.818Z,102167.75
2023-01-29T01:59:48.662Z,102171.22
2023-01-29T02:02:34.022Z,102161.25
2023-01-29T02:05:19.139Z,102158.38
2023-01-29T02:08:04.342Z,102153.22
2023-01-29T02:10:31.027Z,102145.34
2023-01-29T02:12:57.353Z,102142.00
2023-01-29T02:15:23.689Z,102150.66
2023-01-29T02:17:50.301Z,102138.25
2023-01-29T02:20:24.191Z,102135.22
2023-01-29T02:23:08.510Z,102132.97
2023-01-29T02:25:42.565Z,102134.22
2023-01-29T02:28:27.233Z,102128.44
2023-01-29T02:30:57.819Z,102144.22
2023-01-29T02:33:26.561Z,102128.44
2023-01-29T02:35:56.043Z,102145.72
2023-01-29T02:38:36.541Z,102144.31
2023-01-29T02:41:15.985Z,102145.84
2023-01-29T02:43:46.730Z,102131.47
2023-01-29T02:46:18.191Z,102125.72
2023-01-29T02:48:47.639Z,102125.72
2023-01-29T02:51:17.234Z,102127.22
2023-01-29T02:53:50.456Z,102121.31
2023-01-29T02:56:17.713Z,102127.72
2023-01-29T02:58:47.858Z,102116.22
2023-01-29T03:05:15.301Z,102119.69
2023-01-29T03:07:45.993Z,102124.19
2023-01-29T03:10:30.947Z,102128.44
2023-01-29T03:13:07.778Z,102124.69
2023-01-29T03:15:48.339Z,102113.94
2023-01-29T03:18:27.610Z,102120.94
2023-01-29T03:20:58.813Z,102125.94
2023-01-29T03:23:47.228Z,102126.53
2023-01-29T03:26:33.352Z,102127.88
2023-01-29T03:29:18.550Z,102128.53
2023-01-29T03:32:05.134Z,102113.41
2023-01-29T03:34:34.669Z,102109.00
2023-01-29T03:37:02.259Z,102101.91
2023-01-29T03:39:28.647Z,102100.53
2023-01-29T03:42:00.909Z,102097.94
2023-01-29T03:44:31.076Z,102087.78
2023-01-29T03:47:08.773Z,102083.69
2023-01-29T03:49:44.319Z,102078.69
2023-01-29T03:52:21.767Z,102067.94
2023-01-29T03:55:01.340Z,102069.47
2023-01-29T03:57:35.256Z,102063.06
2023-01-29T04:00:22.671Z,102050.09
2023-01-29T04:03:03.571Z,102049.59
2023-01-29T04:05:33.355Z,102040.22
2023-01-29T04:08:09.478Z,102040.97
2023-01-29T04:10:36.142Z,102029.47
2023-01-29T04:13:08.967Z,102025.09
2023-01-29T04:15:45.266Z,102016.47
2023-01-29T04:18:11.790Z,102017.22
2023-01-29T04:20:55.323Z,102012.06
2023-01-29T04:23:25.283Z,102009.09
2023-01-29T04:26:00.279Z,102007.69
2023-01-29T04:28:28.390Z,102011.97
2023-01-29T04:30:58.463Z,101989.72
2023-01-29T04:33:28.684Z,101988.31
2023-01-29T04:36:10.201Z,101978.94
2023-01-29T04:38:55.334Z,101987.56
2023-01-29T04:41:21.593Z,101993.31
2023-01-29T04:43:58.346Z,101996.94
2023-01-29T04:46:31.678Z,101991.19
2023-01-29T04:48:57.936Z,101994.72
2023-01-29T04:51:43.825Z,102000.47
2023-01-29T04:54:22.668Z,101994.72
2023-01-29T04:56:51.819Z,101988.97
2023-01-29T04:59:20.771Z,101991.94
2023-01-29T05:01:47.404Z,101996.94
2023-01-29T05:04:14.301Z,102004.97
2023-01-29T05:06:40.645Z,102005.72
2023-01-29T05:09:07.010Z,102002.97
2023-01-29T05:11:33.448Z,101998.72
2023-01-29T05:14:00.738Z,102000.22
2023-01-29T05:16:27.956Z,102003.25
2023-01-29T05:18:54.284Z,101996.75
2023-01-29T05:21:20.641Z,101995.97
2023-01-29T05:23:57.850Z,102002.50
2023-01-29T05:26:42.652Z,102005.25
2023-01-29T05:29:08.978Z,101996.63
2023-01-29T05:31:35.340Z,101994.97
2023-01-29T05:34:01.691Z,101996.47
2023-01-29T05:36:28.081Z,101999.97
2023-01-29T05:38:54.411Z,102003.59
2023-01-29T05:41:21.131Z,102009.47
2023-01-29T05:43:47.619Z,102004.34
2023-01-29T05:46:13.971Z,102007.97
2023-01-29T05:48:40.339Z,102005.84
2023-01-29T05:51:06.676Z,102014.47
2023-01-29T05:53:33.025Z,102011.00
2023-01-29T05:56:02.143Z,102019.47
2023-01-29T05:58:29.802Z,102017.97
2023-01-29T06:00:56.134Z,102023.72
2023-01-29T06:03:22.462Z,102028.09
2023-01-29T06:05:48.790Z,102027.97
2023-01-29T06:08:15.110Z,102032.34
2023-01-29T06:10:41.439Z,102026.59
2023-01-29T06:13:07.908Z,102030.97
2023-01-29T06:15:34.272Z,102033.22
2023-01-29T06:18:00.609Z,102035.34
2023-01-29T06:20:26.960Z,102036.88
2023-01-29T06:22:53.275Z,102036.22
2023-01-29T06:25:19.631Z,102033.34
2023-01-29T06:27:45.987Z,102027.00
2023-01-29T06:30:12.426Z,102021.25
2023-01-29T06:32:38.803Z,102020.50
2023-01-29T06:35:05.304Z,102023.97
2023-01-29T06:37:31.653Z,102031.25
2023-01-29T06:39:58.008Z,102028.25
2023-01-29T06:42:27.805Z,102020.97
2023-01-29T06:44:54.917Z,102022.34
2023-01-29T06:47:21.245Z,102033.22
2023-01-29T06:49:47.554Z,102037.63
2023-01-29T06:52:13.878Z,102034.00
2023-01-29T06:54:40.195Z,102040.50
2023-01-29T06:57:06.516Z,102044.09
2023-01-29T06:59:32.830Z,102037.00
2023-01-29T07:01:59.415Z,102028.25
2023-01-29T07:04:25.782Z,102034.75
2023-01-29T07:06:52.313Z,102031.25
2023-01-29T07:09:18.635Z,102034.13
2023-01-29T07:11:44.961Z,102018.22
2023-01-29T07:14:11.344Z,102036.88
2023-01-29T07:16:37.740Z,102032.00
2023-01-29T07:19:04.088Z,102011.22
2023-01-29T07:21:30.423Z,102005.47
2023-01-29T07:23:56.977Z,102019.88
2023-01-29T07:26:23.433Z,102017.13
2023-01-29T07:28:49.751Z,102025.75
2023-01-29T07:31:16.177Z,102048.00
2023-01-29T07:33:45.554Z,102037.88
2023-01-29T07:36:11.966Z,102040.00
2023-01-29T07:38:38.297Z,102029.88
2023-01-29T07:41:04.652Z,102037.00
2023-01-29T07:43:30.972Z,102034.13
2023-01-29T07:46:00.887Z,102026.25
2023-01-29T07:48:27.218Z,102023.38
2023-01-29T07:50:56.497Z,102009.75
2023-01-29T07:53:22.819Z,101996.75
2023-01-29T07:55:49.167Z,101992.50
2023-01-29T07:58:15.485Z,101988.22
2023-01-29T08:00:41.820Z,101995.38
2023-01-29T08:03:09.857Z,102004.00
2023-01-29T08:05:36.205Z,101996.75
2023-01-29T08:08:06.918Z,102001.72
2023-01-29T08:10:36.879Z,101993.75
2023-01-29T08:13:03.311Z,101988.72
2023-01-29T08:15:29.664Z,101985.09
2023-01-29T08:17:58.150Z,101997.50
2023-01-29T08:20:24.779Z,101992.50
2023-01-29T08:22:53.922Z,101986.00
2023-01-29T08:25:20.246Z,101980.25
2023-01-29T08:27:46.568Z,101979.59
2023-01-29T08:30:13.082Z,101975.38
2023-01-29T08:32:39.436Z,101977.50
2023-01-29T08:35:05.872Z,101969.00
2023-01-29T08:37:32.426Z,101974.75
2023-01-29T08:39:58.756Z,101979.88
2023-01-29T08:42:25.075Z,101986.88
2023-01-29T08:44:51.387Z,101992.22
2023-01-29T08:47:17.707Z,101989.97
2023-01-29T08:49:44.026Z,101975.88
2023-01-29T08:52:10.361Z,101983.03
2023-01-29T08:54:36.705Z,101974.25
2023-01-29T08:57:03.259Z,101983.69
2023-01-29T08:59:29.581Z,101979.59
2023-01-29T09:01:55.913Z,101972.63
2023-01-29T09:04:22.259Z,101978.31
2023-01-29T09:06:48.595Z,101982.53
2023-01-29T09:09:14.925Z,101979.03
2023-01-29T09:11:41.296Z,101975.72
2023-01-29T09:14:07.608Z,101967.81
2023-01-29T09:16:33.967Z,101967.41
2023-01-29T09:19:00.367Z,101973.31
2023-01-29T09:21:26.739Z,101977.25
2023-01-29T09:23:53.055Z,101964.31
2023-01-29T09:26:19.395Z,101967.81
2023-01-29T09:28:45.734Z,101967.88
2023-01-29T09:31:12.111Z,101965.72
2023-01-29T09:33:38.482Z,101964.91
2023-01-29T09:36:04.927Z,101953.09
2023-01-29T09:38:31.261Z,101955.31
2023-01-29T09:41:26.905Z,101948.53
2023-01-29T09:43:55.059Z,101942.81
2023-01-29T09:46:30.719Z,101937.50
2023-01-29T09:49:23.346Z,101939.63
2023-01-29T09:51:50.863Z,101934.75
2023-01-29T09:54:22.771Z,101926.28
2023-01-29T09:56:49.094Z,101923.06
2023-01-29T09:59:15.421Z,101921.09
2023-01-29T10:01:51.306Z,101909.88
2023-01-29T10:04:36.412Z,101918.78
2023-01-29T10:07:19.156Z,101911.66
2023-01-29T10:10:07.487Z,101909.66
2023-01-29T10:12:37.741Z,101904.19
2023-01-29T10:15:07.050Z,101913.41
2023-01-29T10:17:37.913Z,101902.94
2023-01-29T10:20:10.242Z,101895.09
2023-01-29T10:22:51.862Z,101893.13
2023-01-29T10:25:19.700Z,101899.75
2023-01-29T10:27:51.666Z,101904.25
2023-01-29T10:30:28.081Z,101915.75
2023-01-29T10:32:54.669Z,101915.28
2023-01-29T10:35:22.399Z,101911.03
2023-01-29T10:37:48.752Z,101904.66
2023-01-29T10:40:22.461Z,101904.06
2023-01-29T10:42:58.082Z,101904.81
2023-01-29T10:45:33.590Z,101894.78
2023-01-29T10:48:09.590Z,101896.31
2023-01-29T10:50:47.484Z,101883.56
2023-01-29T10:53:17.135Z,101864.38
2023-01-29T10:55:43.450Z,101871.63
2023-01-29T10:58:19.529Z,101856.50
2023-01-29T11:00:45.974Z,101859.03
2023-01-29T11:03:27.063Z,101861.25
2023-01-29T11:06:13.083Z,101851.41
2023-01-29T11:08:43.794Z,101844.69
2023-01-29T11:11:13.926Z,101841.94
2023-01-29T11:13:41.530Z,101842.94
2023-01-29T11:16:08.608Z,101832.91
2023-01-29T11:18:48.265Z,101837.44
2023-01-29T11:21:14.640Z,101824.81
2023-01-29T11:23:40.996Z,101822.31
2023-01-29T11:26:09.193Z,101826.38
2023-01-29T11:28:54.362Z,101823.25
2023-01-29T11:31:22.238Z,101819.22
2023-01-29T11:33:48.720Z,101815.69
2023-01-29T11:36:41.549Z,101807.09
2023-01-29T11:39:07.847Z,101803.41
2023-01-29T11:41:42.319Z,101793.66
2023-01-29T11:44:17.387Z,101792.41
2023-01-29T11:46:43.807Z,101796.94
2023-01-29T11:49:20.550Z,101780.44
2023-01-29T11:51:50.385Z,101785.56
2023-01-29T11:54:16.984Z,101776.94
2023-01-29T11:56:43.520Z,101772.69
2023-01-29T11:59:26.196Z,101775.56
2023-01-29T12:01:52.547Z,101771.34
2023-01-29T12:04:20.102Z,101769.94
2023-01-29T12:06:48.685Z,101764.19
2023-01-29T12:09:16.871Z,101770.69
2023-01-29T12:11:43.285Z,101772.22
2023-01-29T12:14:22.698Z,101771.56
2023-01-29T12:16:53.755Z,101765.81
2023-01-29T12:19:40.451Z,101763.72
2023-01-29T12:22:10.187Z,101760.19
2023-01-29T12:24:38.970Z,101758.72
2023-01-29T12:27:15.495Z,101769.47
2023-01-29T12:30:00.674Z,101744.19
2023-01-29T12:32:46.460Z,101744.63
2023-01-29T12:35:15.507Z,101739.78
2023-01-29T12:37:42.140Z,101747.44
2023-01-29T12:40:15.457Z,101743.44
2023-01-29T12:42:42.622Z,101728.09
2023-01-29T12:45:10.817Z,101721.09
2023-01-29T12:47:44.149Z,101707.22
2023-01-29T12:50:20.718Z,101701.47
2023-01-29T12:52:48.141Z,101698.47
2023-01-29T12:55:21.972Z,101705.84
2023-01-29T12:57:48.290Z,101702.22
2023-01-29T13:00:15.526Z,101710.47
2023-01-29T13:02:49.945Z,101702.28
2023-01-29T13:05:48.752Z,101710.44
2023-01-29T13:08:19.454Z,101698.44
2023-01-29T13:10:46.782Z,101706.41
2023-01-29T13:13:26.563Z,101705.63
2023-01-29T13:15:53.020Z,101710.91
2023-01-29T13:18:40.849Z,101706.91
2023-01-29T13:21:07.224Z,101706.84
2023-01-29T13:23:40.739Z,101705.84
2023-01-29T13:26:07.072Z,101701.44
2023-01-29T13:28:33.412Z,101691.03
2023-01-29T13:31:19.961Z,101685.06
2023-01-29T13:33:52.018Z,101687.53
2023-01-29T13:36:20.740Z,101693.00
2023-01-29T13:38:47.331Z,101693.28
2023-01-29T13:41:13.669Z,101687.03
2023-01-29T13:43:41.128Z,101686.34
2023-01-29T13:46:08.573Z,101681.81
2023-01-29T13:48:38.280Z,101683.31
2023-01-29T13:51:04.754Z,101676.19
2023-01-29T13:53:35.565Z,101679.06
2023-01-29T13:56:20.304Z,101678.19
2023-01-29T13:58:46.575Z,101674.47
2023-01-29T14:01:12.929Z,101679.44
2023-01-29T14:04:03.639Z,101669.78
2023-01-29T14:06:40.668Z,101668.00
2023-01-29T14:09:26.872Z,101670.19
2023-01-29T14:11:53.222Z,101666.16
2023-01-29T14:14:38.436Z,101668.09
2023-01-29T14:17:04.795Z,101660.63
2023-01-29T14:19:31.124Z,101658.41
2023-01-29T14:21:57.459Z,101657.31
2023-01-29T14:24:23.857Z,101648.66
2023-01-29T14:26:53.797Z,101650.41
2023-01-29T14:29:33.891Z,101654.56
2023-01-29T14:32:09.578Z,101658.84
2023-01-29T14:34:36.400Z,101648.69
2023-01-29T14:37:22.961Z,101646.47
2023-01-29T14:39:53.097Z,101646.06
2023-01-29T14:42:23.331Z,101646.00
2023-01-29T14:44:55.565Z,101642.22
2023-01-29T14:47:25.732Z,101626.66
2023-01-29T14:49:52.563Z,101631.41
2023-01-29T14:52:18.912Z,101620.38
2023-01-29T14:54:45.962Z,101625.41
2023-01-29T14:57:12.771Z,101620.06
2023-01-29T14:59:43.554Z,101622.34
2023-01-29T15:02:15.372Z,101619.09
2023-01-29T15:04:43.022Z,101619.47
2023-01-29T15:07:09.269Z,101618.50
2023-01-29T15:09:40.977Z,101603.50
2023-01-29T15:12:14.279Z,101611.81
2023-01-29T15:14:46.924Z,101612.91
2023-01-29T15:17:18.858Z,101609.81
2023-01-29T15:19:45.905Z,101598.94
2023-01-29T15:22:13.516Z,101596.69
2023-01-29T15:24:40.304Z,101598.06
2023-01-29T15:27:07.088Z,101598.06
2023-01-29T15:29:33.413Z,101590.81
2023-01-29T15:31:59.936Z,101595.31
2023-01-29T15:34:26.317Z,101588.81
2023-01-29T15:36:52.657Z,101576.34
2023-01-29T15:39:19.836Z,101576.34
2023-01-29T15:41:46.210Z,101570.47
2023-01-29T15:44:14.163Z,101568.81
2023-01-29T15:46:40.578Z,101571.59
2023-01-29T15:49:10.602Z,101573.09
2023-01-29T15:51:36.924Z,101573.09
2023-01-29T15:54:03.727Z,101568.81
2023-01-29T15:56:59.159Z,101561.59
2023-01-29T15:59:26.004Z,101550.09
2023-01-29T16:01:52.926Z,101554.44
2023-01-29T16:04:24.096Z,101555.84
2023-01-29T16:06:50.446Z,101550.09
2023-01-29T16:09:18.220Z,101545.69
2023-01-29T16:11:44.562Z,101539.31
2023-01-29T16:14:12.586Z,101535.59
2023-01-29T16:16:38.943Z,101539.09
2023-01-29T16:19:13.325Z,101530.34
2023-01-29T16:21:40.028Z,101541.09
2023-01-29T16:24:09.613Z,101535.34
2023-01-29T16:26:43.305Z,101538.22
2023-01-29T16:29:10.135Z,101533.97
2023-01-29T16:31:36.785Z,101535.34
2023-01-29T16:34:06.844Z,101526.72
2023-01-29T16:36:33.166Z,101534.59
2023-01-29T16:39:05.230Z,101539.63
2023-01-29T16:41:32.202Z,101530.88
2023-01-29T16:44:18.748Z,101536.63
2023-01-29T16:46:45.449Z,101533.63
2023-01-29T16:49:27.005Z,101533.63
2023-01-29T16:51:53.556Z,101533.63
2023-01-29T16:54:23.237Z,101538.63
2023-01-29T16:56:50.340Z,101530.75
2023-01-29T16:59:17.631Z,101526.47
2023-01-29T17:01:43.955Z,101525.13
2023-01-29T17:04:11.013Z,101525.00
2023-01-29T17:06:44.829Z,101526.38
2023-01-29T17:09:21.044Z,101522.13
2023-01-29T17:11:50.251Z,101513.72
2023-01-29T17:14:17.178Z,101516.59
2023-01-29T17:16:48.848Z,101518.09
2023-01-29T17:19:17.420Z,101506.34
2023-01-29T17:21:43.776Z,101503.09
2023-01-29T17:24:10.113Z,101494.84
2023-01-29T17:26:36.456Z,101501.25
2023-01-29T17:29:02.813Z,101491.88
2023-01-29T17:31:29.173Z,101491.88
2023-01-29T17:33:55.584Z,101490.38
2023-01-29T17:36:21.904Z,101487.38
2023-01-29T17:38:48.241Z,101477.16
2023-01-29T17:41:24.739Z,101479.41
2023-01-29T17:43:51.052Z,101462.88
2023-01-29T17:46:17.377Z,101472.88
2023-01-29T17:48:43.864Z,101464.38
2023-01-29T17:51:14.444Z,101459.09
2023-01-29T17:53:45.211Z,101464.53
2023-01-29T17:56:16.108Z,101451.09
2023-01-29T17:58:42.769Z,101451.06
2023-01-29T18:01:09.104Z,101444.44
2023-01-29T18:03:35.438Z,101439.59
2023-01-29T18:06:01.770Z,101431.03
2023-01-29T18:08:32.880Z,101425.09
2023-01-29T18:10:59.467Z,101427.06
2023-01-29T18:13:25.792Z,101421.31
2023-01-29T18:15:52.120Z,101417.09
2023-01-29T18:18:18.924Z,101416.53
2023-01-29T18:20:45.295Z,101412.63
2023-01-29T18:23:11.768Z,101409.25
2023-01-29T18:25:38.219Z,101405.59
2023-01-29T18:28:04.771Z,101410.59
2023-01-29T18:30:31.116Z,101409.88
2023-01-29T18:32:57.552Z,101407.72
2023-01-29T18:35:24.124Z,101396.97
2023-01-29T18:37:51.395Z,101404.22
2023-01-29T18:40:17.993Z,101399.22
2023-01-29T18:42:44.742Z,101395.59
2023-01-29T18:45:11.538Z,101395.59
2023-01-29T18:47:38.069Z,101397.09
2023-01-29T18:50:04.490Z,101394.97
2023-01-29T18:52:30.809Z,101397.09
2023-01-29T18:54:57.250Z,101387.72
2023-01-29T18:58:24.654Z,101382.72
2023-01-29T19:00:10.238Z,101378.34
2023-01-29T19:02:36.581Z,101379.84
2023-01-29T19:05:02.926Z,101366.97
2023-01-29T19:07:29.262Z,101369.84
2023-01-29T19:09:55.653Z,101366.84
2023-01-29T19:12:22.374Z,101350.59
2023-01-29T19:14:48.723Z,101361.66
2023-01-29T19:17:15.070Z,101358.16
2023-01-29T19:19:41.448Z,101346.66
2023-01-29T19:22:07.874Z,101343.66
2023-01-29T19:24:38.754Z,101337.19
2023-01-29T19:27:06.313Z,101327.16
2023-01-29T19:29:32.846Z,101328.66
2023-01-29T19:31:59.272Z,101312.91
2023-01-29T19:34:25.680Z,101316.50
2023-01-29T19:36:52.030Z,101312.91
2023-01-29T19:39:18.355Z,101311.41
2023-01-29T19:41:44.748Z,101312.91
2023-01-29T19:44:11.422Z,101317.28
2023-01-29T19:46:38.921Z,101300.66
2023-01-29T19:49:06.646Z,101303.53
2023-01-29T19:51:32.994Z,101292.03
2023-01-29T19:53:59.352Z,101288.41
2023-01-29T19:56:25.715Z,101292.66
2023-01-29T19:58:57.112Z,101281.91
2023-01-29T20:01:24.694Z,101280.41
2023-01-29T20:03:51.030Z,101269.66
2023-01-29T20:06:18.221Z,101276.16
2023-01-29T20:08:47.300Z,101265.41
2023-01-29T20:11:13.906Z,101266.78
2023-01-29T20:13:40.367Z,101258.91
2023-01-29T20:16:07.277Z,101250.38
2023-01-29T20:18:33.667Z,101252.63
2023-01-29T20:21:00.134Z,101252.63
2023-01-29T20:23:37.163Z,101246.88
2023-01-29T20:26:04.271Z,101241.88
2023-01-29T20:28:30.609Z,101232.50
2023-01-29T20:30:58.174Z,101233.91
2023-01-29T20:33:24.931Z,101229.50
2023-01-29T20:35:54.591Z,101226.00
2023-01-29T20:38:20.929Z,101210.91
2023-01-29T20:40:47.273Z,101202.28
2023-01-29T20:43:13.594Z,101198.00
2023-01-29T20:45:39.957Z,101190.84
2023-01-29T20:48:07.865Z,101179.34
2023-01-29T20:50:34.411Z,101183.63
2023-01-29T20:53:00.755Z,101182.22
2023-01-29T20:55:27.520Z,101175.00
2023-01-29T20:58:05.645Z,101176.47
2023-01-29T21:00:33.065Z,101172.88
2023-01-29T21:02:59.430Z,101166.38
2023-01-29T21:05:25.779Z,101164.97
2023-01-29T21:07:52.133Z,101155.63
2023-01-29T21:10:18.786Z,101140.59
2023-01-29T21:12:45.557Z,101130.59
2023-01-29T21:15:11.968Z,101139.31
2023-01-29T21:17:38.305Z,101128.59
2023-01-29T21:20:04.762Z,101132.41
2023-01-29T21:22:31.292Z,101135.81
2023-01-29T21:24:57.619Z,101121.84
2023-01-29T21:27:24.302Z,101114.63
2023-01-29T21:29:50.624Z,101101.72
2023-01-29T21:32:18.167Z,101108.34
2023-01-29T21:34:44.498Z,101104.06
2023-01-29T21:37:10.884Z,101103.44
2023-01-29T21:39:37.214Z,101100.56
2023-01-29T21:42:22.105Z,101099.81
2023-01-29T21:44:48.498Z,101086.94
2023-01-29T21:47:14.851Z,101086.09
2023-01-29T21:49:41.560Z,101078.81
2023-01-29T21:52:08.080Z,101068.72
2023-01-29T21:54:35.551Z,101067.22
2023-01-29T21:57:04.546Z,101062.88
2023-01-29T21:59:32.114Z,101061.41
2023-01-29T22:01:58.869Z,101058.53
2023-01-29T22:04:25.386Z,101058.53
2023-01-29T22:06:51.727Z,101062.03
2023-01-29T22:09:18.079Z,101064.91
2023-01-29T22:11:44.508Z,101056.91
2023-01-29T22:14:10.844Z,101052.56
2023-01-29T22:16:37.200Z,101045.31
2023-01-29T22:19:03.560Z,101032.22
2023-01-29T22:21:29.923Z,101022.13
2023-01-29T22:23:56.259Z,101022.03
2023-01-29T22:26:22.635Z,101027.75
2023-01-29T22:28:49.049Z,101014.03
2023-01-29T22:31:15.377Z,101019.03
2023-01-29T22:33:41.693Z,101011.78
2023-01-29T22:36:08.160Z,101004.56
2023-01-29T22:38:34.470Z,100992.84
2023-01-29T22:41:00.819Z,100995.72
2023-01-29T22:43:27.188Z,100997.22
2023-01-29T22:45:53.523Z,100990.28
2023-01-29T22:48:19.853Z,100965.78
2023-01-29T22:50:53.630Z,100962.81
2023-01-29T22:53:20.203Z,100952.63
2023-01-29T22:55:53.271Z,100951.13
2023-01-29T22:58:19.611Z,100936.66
2023-01-29T23:00:49.383Z,100941.69
2023-01-29T23:03:15.742Z,100932.28
2023-01-29T23:05:42.091Z,100930.09
2023-01-29T23:08:08.421Z,100932.19
2023-01-29T23:10:34.784Z,100927.84
2023-01-29T23:13:01.122Z,100930.72
2023-01-29T23:15:27.480Z,100926.38
2023-01-29T23:17:53.808Z,100916.25
2023-01-29T23:20:21.587Z,100903.28
2023-01-29T23:22:48.251Z,100913.25
2023-01-29T23:25:14.595Z,100898.78
2023-01-29T23:27:40.945Z,100894.56
2023-01-29T23:30:07.467Z,100898.06
2023-01-29T23:32:33.927Z,100893.06
2023-01-29T23:35:00.279Z,100888.81
2023-01-29T23:37:26.629Z,100877.31
2023-01-29T23:39:52.993Z,100869.53
2023-01-29T23:42:19.417Z,100866.66
2023-01-29T23:44:45.742Z,100868.91
2023-01-29T23:47:12.071Z,100866.75
2023-01-29T23:49:38.417Z,100868.22
2023-01-29T23:52:04.732Z,100853.22
2023-01-29T23:54:31.075Z,100861.94
2023-01-29T23:56:57.423Z,100848.94
2023-01-29T23:59:26.458Z,100843.97
